createdAt,value
2018-06-01T00:01:07.743Z,84.30
2018-06-01T00:03:35.283Z,84.20
2018-06-01T00:06:03.607Z,84.20
2018-06-01T00:08:31.147Z,84.10
2018-06-01T00:10:58.697Z,84.30
2018-06-01T00:13:26.234Z,84.40
2018-06-01T00:15:54.550Z,84.40
2018-06-01T00:18:22.105Z,84.40
2018-06-01T00:20:49.670Z,84.20
2018-06-01T00:23:17.209Z,84.20
2018-06-01T00:25:44.771Z,84.20
2018-06-01T00:28:12.314Z,84.20
2018-06-01T00:30:40.643Z,83.90
2018-06-01T00:33:08.170Z,83.90
2018-06-01T00:35:35.730Z,84.10
2018-06-01T00:38:03.265Z,84.10
2018-06-01T00:40:30.844Z,84.20
2018-06-01T00:42:58.676Z,84.00
2018-06-01T00:45:26.212Z,84.10
2018-06-01T00:47:53.858Z,83.90
2018-06-01T00:50:21.389Z,84.10
2018-06-01T00:52:49.711Z,83.90
2018-06-01T00:55:32.130Z,83.90
2018-06-01T00:57:59.690Z,83.90
2018-06-01T01:00:27.225Z,83.90
2018-06-01T01:02:54.780Z,83.90
2018-06-01T01:05:22.315Z,83.90
2018-06-01T01:07:50.642Z,83.60
2018-06-01T01:10:18.186Z,83.50
2018-06-01T01:12:45.742Z,83.60
2018-06-01T01:15:13.286Z,83.30
2018-06-01T01:17:40.842Z,83.40
2018-06-01T01:20:08.371Z,83.10
2018-06-01T01:22:35.938Z,83.20
2018-06-01T01:25:04.238Z,83.20
2018-06-01T01:27:31.799Z,83.10
2018-06-01T01:29:59.380Z,83.00
2018-06-01T01:32:26.945Z,82.90
2018-06-01T01:34:54.516Z,83.60
2018-06-01T01:37:30.820Z,82.90
2018-06-01T01:39:59.128Z,83.00
2018-06-01T01:42:26.689Z,82.50
2018-06-01T01:44:54.226Z,82.40
2018-06-01T01:47:22.557Z,82.70
2018-06-01T01:49:53.982Z,82.70
2018-06-01T01:52:21.543Z,82.70
2018-06-01T01:54:49.070Z,82.70
2018-06-01T01:57:17.397Z,82.90
2018-06-01T01:59:45.725Z,83.60
2018-06-01T02:02:14.048Z,82.60
2018-06-01T02:04:41.583Z,82.60
2018-06-01T02:07:09.150Z,82.60
2018-06-01T02:09:36.677Z,82.70
2018-06-01T02:12:04.233Z,82.70
2018-06-01T02:14:31.762Z,82.70
2018-06-01T02:16:59.332Z,82.50
2018-06-01T02:19:26.871Z,82.50
2018-06-01T02:21:54.438Z,82.50
2018-06-01T02:24:21.992Z,82.40
2018-06-01T02:26:49.650Z,82.40
2018-06-01T02:29:17.178Z,82.40
2018-06-01T02:31:45.504Z,82.40
2018-06-01T02:34:13.047Z,82.30
2018-06-01T02:36:40.620Z,82.40
2018-06-01T02:39:08.174Z,82.60
2018-06-01T02:41:35.731Z,82.50
2018-06-01T02:44:03.271Z,82.30
2018-06-01T02:46:30.833Z,82.30
2018-06-01T02:48:58.369Z,82.10
2018-06-01T02:51:26.789Z,82.00
2018-06-01T02:53:54.325Z,81.90
2018-06-01T02:56:21.882Z,82.00
2018-06-01T02:58:50.180Z,81.80
2018-06-01T03:01:17.746Z,81.80
2018-06-01T03:03:45.411Z,82.00
2018-06-01T03:06:12.955Z,81.80
2018-06-01T03:08:40.515Z,81.60
2018-06-01T03:11:08.059Z,81.60
2018-06-01T03:13:36.385Z,81.40
2018-06-01T03:16:03.923Z,81.40
2018-06-01T03:18:31.485Z,81.50
2018-06-01T03:20:59.022Z,81.30
2018-06-01T03:23:26.581Z,81.10
2018-06-01T03:25:54.879Z,81.10
2018-06-01T03:28:22.439Z,81.10
2018-06-01T03:30:49.984Z,81.00
2018-06-01T03:33:17.551Z,80.70
2018-06-01T03:35:45.094Z,80.80
2018-06-01T03:38:13.423Z,80.90
2018-06-01T03:40:40.968Z,81.60
2018-06-01T03:43:08.522Z,80.80
2018-06-01T03:45:36.066Z,80.70
2018-06-01T03:48:03.624Z,80.90
2018-06-01T03:50:31.167Z,80.50
2018-06-01T03:52:59.495Z,80.40
2018-06-01T03:55:27.031Z,80.40
2018-06-01T03:57:54.595Z,80.50
2018-06-01T04:00:22.136Z,80.40
2018-06-01T04:02:49.755Z,81.00
2018-06-01T04:05:17.264Z,80.20
2018-06-01T04:07:44.844Z,80.30
2018-06-01T04:10:12.399Z,80.00
2018-06-01T04:12:39.967Z,80.00
2018-06-01T04:15:07.502Z,80.00
2018-06-01T04:17:35.057Z,79.90
2018-06-01T04:20:03.362Z,79.90
2018-06-01T04:22:30.927Z,79.90
2018-06-01T04:24:58.466Z,79.90
2018-06-01T04:27:26.027Z,79.70
2018-06-01T04:29:53.562Z,79.80
2018-06-01T04:32:21.886Z,80.10
2018-06-01T04:34:49.413Z,80.00
2018-06-01T04:37:16.975Z,79.90
2018-06-01T04:39:44.560Z,79.90
2018-06-01T04:42:12.122Z,79.80
2018-06-01T04:44:39.660Z,80.10
2018-06-01T04:47:07.226Z,79.90
2018-06-01T04:49:34.766Z,79.90
2018-06-01T04:52:03.095Z,79.90
2018-06-01T04:54:30.741Z,79.90
2018-06-01T04:56:58.407Z,79.90
2018-06-01T04:59:25.967Z,80.00
2018-06-01T05:01:53.506Z,80.00
2018-06-01T05:04:21.069Z,80.00
2018-06-01T05:06:48.598Z,80.10
2018-06-01T05:09:16.918Z,79.00
2018-06-01T05:11:44.445Z,78.80
2018-06-01T05:14:12.774Z,80.40
2018-06-01T05:16:40.315Z,80.30
2018-06-01T05:19:07.891Z,80.00
2018-06-01T05:21:35.456Z,78.50
2018-06-01T05:24:03.011Z,78.00
2018-06-01T05:26:30.552Z,77.80
2018-06-01T05:28:58.121Z,77.90
2018-06-01T05:31:25.661Z,77.90
2018-06-01T05:33:53.228Z,77.70
2018-06-01T05:36:20.761Z,77.60
2018-06-01T05:38:49.285Z,77.50
2018-06-01T05:41:16.843Z,77.40
2018-06-01T05:43:44.629Z,77.50
2018-06-01T05:46:12.371Z,77.40
2018-06-01T05:48:39.931Z,77.40
2018-06-01T05:51:07.472Z,77.60
2018-06-01T05:53:35.033Z,77.60
2018-06-01T05:56:02.572Z,77.80
2018-06-01T05:58:30.900Z,78.20
2018-06-01T06:00:58.437Z,78.10
2018-06-01T06:03:26.007Z,78.10
2018-06-01T06:05:53.544Z,78.30
2018-06-01T06:08:21.099Z,78.30
2018-06-01T06:10:49.403Z,78.70
2018-06-01T06:13:16.976Z,78.70
2018-06-01T06:15:44.519Z,78.90
2018-06-01T06:18:12.092Z,79.20
2018-06-01T06:20:39.635Z,79.00
2018-06-01T06:23:07.201Z,79.20
2018-06-01T06:25:34.745Z,79.20
2018-06-01T06:28:02.307Z,79.40
2018-06-01T06:30:29.860Z,79.50
2018-06-01T06:32:58.187Z,79.80
2018-06-01T06:35:25.723Z,79.80
2018-06-01T06:37:53.283Z,79.90
2018-06-01T06:40:20.814Z,80.00
2018-06-01T06:42:49.154Z,79.80
2018-06-01T06:45:16.694Z,79.70
2018-06-01T06:47:44.262Z,82.20
2018-06-01T06:50:11.822Z,81.90
2018-06-01T06:52:39.366Z,81.20
2018-06-01T06:55:06.938Z,80.90
2018-06-01T06:57:34.487Z,80.60
2018-06-01T07:00:02.049Z,80.50
2018-06-01T07:02:29.588Z,80.60
2018-06-01T07:04:57.149Z,80.80
2018-06-01T07:07:25.464Z,80.80
2018-06-01T07:09:53.022Z,80.90
2018-06-01T07:12:20.572Z,81.00
2018-06-01T07:14:48.134Z,81.10
2018-06-01T07:17:15.743Z,81.10
2018-06-01T07:19:44.266Z,81.30
2018-06-01T07:22:11.876Z,81.40
2018-06-01T07:24:40.488Z,81.60
2018-06-01T07:27:08.174Z,81.40
2018-06-01T07:29:35.820Z,82.20
2018-06-01T07:32:03.523Z,81.60
2018-06-01T07:34:31.186Z,81.60
2018-06-01T07:36:58.739Z,81.70
2018-06-01T07:39:26.303Z,81.80
2018-06-01T07:41:54.622Z,81.80
2018-06-01T07:44:22.960Z,82.00
2018-06-01T07:46:50.570Z,82.00
2018-06-01T07:49:18.095Z,82.00
2018-06-01T07:51:45.641Z,82.00
2018-06-01T07:54:13.206Z,82.20
2018-06-01T07:56:40.744Z,82.10
2018-06-01T07:59:08.307Z,82.20
2018-06-01T08:01:35.963Z,82.10
2018-06-01T08:04:03.527Z,82.20
2018-06-01T08:06:31.085Z,82.40
2018-06-01T08:08:58.655Z,82.00
2018-06-01T08:11:26.189Z,82.90
2018-06-01T08:13:53.765Z,81.90
2018-06-01T08:16:21.306Z,81.90
2018-06-01T08:18:49.090Z,81.90
2018-06-01T08:21:16.661Z,82.10
2018-06-01T08:23:44.313Z,81.90
2018-06-01T08:26:11.853Z,81.70
2018-06-01T08:28:39.420Z,82.60
2018-06-01T08:31:06.962Z,82.10
2018-06-01T08:33:35.271Z,81.90
2018-06-01T08:36:02.851Z,81.70
2018-06-01T08:38:31.371Z,81.90
2018-06-01T08:40:59.670Z,81.90
2018-06-01T08:43:27.324Z,81.90
2018-06-01T08:45:54.867Z,81.80
2018-06-01T08:48:23.171Z,82.00
2018-06-01T08:50:50.739Z,82.00
2018-06-01T08:53:18.272Z,81.70
2018-06-01T08:55:46.690Z,81.80
2018-06-01T08:58:14.227Z,81.70
2018-06-01T09:00:41.779Z,81.80
2018-06-01T09:03:10.088Z,81.80
2018-06-01T09:05:37.752Z,81.80
2018-06-01T09:08:05.291Z,81.90
2018-06-01T09:10:32.851Z,81.80
2018-06-01T09:13:00.393Z,81.70
2018-06-01T09:15:28.731Z,82.00
2018-06-01T09:17:56.266Z,82.00
2018-06-01T09:20:23.930Z,81.60
2018-06-01T09:22:51.471Z,81.40
2018-06-01T09:25:19.031Z,81.30
2018-06-01T09:27:46.569Z,81.00
2018-06-01T09:30:15.073Z,81.30
2018-06-01T09:32:42.616Z,81.30
2018-06-01T09:35:10.993Z,81.60
2018-06-01T09:37:38.512Z,81.60
2018-06-01T09:40:06.071Z,81.50
2018-06-01T09:42:33.605Z,81.60
2018-06-01T09:45:01.178Z,81.20
2018-06-01T09:47:28.715Z,80.70
2018-06-01T09:49:56.279Z,80.30
2018-06-01T09:52:23.880Z,80.20
2018-06-01T09:54:51.440Z,79.90
2018-06-01T09:57:18.985Z,79.70
2018-06-01T09:59:46.547Z,79.90
2018-06-01T10:02:14.090Z,79.90
2018-06-01T10:04:41.651Z,80.00
2018-06-01T10:07:09.181Z,80.00
2018-06-01T10:09:37.508Z,80.30
2018-06-01T10:12:05.047Z,80.30
2018-06-01T10:14:32.602Z,79.90
2018-06-01T10:17:00.144Z,78.90
2018-06-01T10:19:27.706Z,78.60
2018-06-01T10:21:55.252Z,77.80
2018-06-01T10:24:23.580Z,77.50
2018-06-01T10:26:51.113Z,77.50
2018-06-01T10:29:18.665Z,78.00
2018-06-01T10:31:46.203Z,78.30
2018-06-01T10:34:14.523Z,78.70
2018-06-01T10:36:42.337Z,78.60
2018-06-01T10:39:09.943Z,77.60
2018-06-01T10:41:37.476Z,76.40
2018-06-01T10:44:05.785Z,74.80
2018-06-01T10:46:33.352Z,74.80
2018-06-01T10:49:00.911Z,75.10
2018-06-01T10:51:28.478Z,76.10
2018-06-01T10:53:56.009Z,76.50
2018-06-01T10:56:23.588Z,75.60
2018-06-01T10:58:51.136Z,75.40
2018-06-01T11:01:18.698Z,75.90
2018-06-01T11:03:46.230Z,76.30
2018-06-01T11:06:14.562Z,77.00
2018-06-01T11:08:42.098Z,77.10
2018-06-01T11:11:09.658Z,77.20
2018-06-01T11:13:37.238Z,77.20
2018-06-01T11:16:04.802Z,77.10
2018-06-01T11:18:32.349Z,77.60
2018-06-01T11:20:59.907Z,77.80
2018-06-01T11:23:27.450Z,78.10
2018-06-01T11:25:55.108Z,78.20
2018-06-01T11:28:23.415Z,77.40
2018-06-01T11:30:50.998Z,77.40
2018-06-01T11:33:18.540Z,77.20
2018-06-01T11:35:46.108Z,76.70
2018-06-01T11:38:13.644Z,75.20
2018-06-01T11:40:41.203Z,73.90
2018-06-01T11:43:08.745Z,73.20
2018-06-01T11:45:36.303Z,73.50
2018-06-01T11:48:03.838Z,73.10
2018-06-01T11:50:31.408Z,71.90
2018-06-01T11:52:59.723Z,70.60
2018-06-01T11:55:27.286Z,70.50
2018-06-01T11:57:54.831Z,70.00
2018-06-01T12:00:22.399Z,70.00
2018-06-01T12:02:49.932Z,71.40
2018-06-01T12:05:18.259Z,72.20
2018-06-01T12:07:45.804Z,72.20
2018-06-01T12:10:13.365Z,71.30
2018-06-01T12:12:40.890Z,71.20
2018-06-01T12:15:09.208Z,72.00
2018-06-01T12:17:36.805Z,71.90
2018-06-01T12:20:04.343Z,71.00
2018-06-01T12:22:31.884Z,72.00
2018-06-01T12:24:59.467Z,72.70
2018-06-01T12:27:27.007Z,74.70
2018-06-01T12:29:54.547Z,74.40
2018-06-01T12:32:22.112Z,74.20
2018-06-01T12:34:49.668Z,72.90
2018-06-01T12:37:17.234Z,71.60
2018-06-01T12:39:44.771Z,70.70
2018-06-01T12:42:13.106Z,70.60
2018-06-01T12:44:40.643Z,70.60
2018-06-01T12:47:08.203Z,72.00
2018-06-01T12:49:36.508Z,70.50
2018-06-01T12:52:04.062Z,70.50
2018-06-01T12:54:31.595Z,70.40
2018-06-01T12:56:59.146Z,70.90
2018-06-01T12:59:26.683Z,72.20
2018-06-01T13:01:55.019Z,73.10
2018-06-01T13:04:22.556Z,73.10
2018-06-01T13:06:50.118Z,72.20
2018-06-01T13:09:17.678Z,71.80
2018-06-01T13:11:45.229Z,71.50
2018-06-01T13:14:12.764Z,71.10
2018-06-01T13:16:41.095Z,72.10
2018-06-01T13:19:08.634Z,72.20
2018-06-01T13:21:36.687Z,72.40
2018-06-01T13:24:04.268Z,72.70
2018-06-01T13:26:31.833Z,72.20
2018-06-01T13:28:59.377Z,71.20
2018-06-01T13:31:26.945Z,72.20
2018-06-01T13:33:54.491Z,72.20
2018-06-01T13:36:22.053Z,72.00
2018-06-01T13:38:50.368Z,72.70
2018-06-01T13:41:17.936Z,72.70
2018-06-01T13:43:45.481Z,72.90
2018-06-01T13:46:13.047Z,73.00
2018-06-01T13:48:40.585Z,72.60
2018-06-01T13:51:08.138Z,72.40
2018-06-01T13:53:35.675Z,72.40
2018-06-01T13:56:04.089Z,72.00
2018-06-01T13:58:31.636Z,71.90
2018-06-01T14:00:59.192Z,72.70
2018-06-01T14:03:26.739Z,73.40
2018-06-01T14:05:55.067Z,73.20
2018-06-01T14:08:22.607Z,73.20
2018-06-01T14:10:50.166Z,72.20
2018-06-01T14:13:17.726Z,72.30
2018-06-01T14:15:45.284Z,72.50
2018-06-01T14:18:12.826Z,72.70
2018-06-01T14:20:40.383Z,72.70
2018-06-01T14:23:07.919Z,72.90
2018-06-01T14:25:36.271Z,72.80
2018-06-01T14:28:03.813Z,72.70
2018-06-01T14:30:31.390Z,72.60
2018-06-01T14:32:58.936Z,72.60
2018-06-01T14:35:26.503Z,72.20
2018-06-01T14:37:54.040Z,71.70
2018-06-01T14:40:21.578Z,70.90
2018-06-01T14:42:49.143Z,70.20
2018-06-01T14:45:16.694Z,70.50
2018-06-01T14:47:45.020Z,70.70
2018-06-01T14:50:12.562Z,70.70
2018-06-01T14:52:40.895Z,71.20
2018-06-01T14:55:09.279Z,71.30
2018-06-01T14:57:37.702Z,71.90
2018-06-01T15:00:05.366Z,71.90
2018-06-01T15:02:32.933Z,72.10
2018-06-01T15:05:00.470Z,71.70
2018-06-01T15:07:28.041Z,71.50
2018-06-01T15:09:55.691Z,71.80
2018-06-01T15:12:23.287Z,71.50
2018-06-01T15:14:50.832Z,71.80
2018-06-01T15:17:18.394Z,71.80
2018-06-01T15:19:45.931Z,71.80
2018-06-01T15:22:13.491Z,72.30
2018-06-01T15:24:41.068Z,72.50
2018-06-01T15:27:08.635Z,72.10
2018-06-01T15:29:36.188Z,71.30
2018-06-01T15:32:03.829Z,71.30
2018-06-01T15:34:31.413Z,71.40
2018-06-01T15:36:58.987Z,71.30
2018-06-01T15:39:26.535Z,70.40
2018-06-01T15:41:54.096Z,72.20
2018-06-01T15:44:21.632Z,70.30
2018-06-01T15:46:49.203Z,69.50
2018-06-01T15:49:16.739Z,68.90
2018-06-01T15:51:45.153Z,69.80
2018-06-01T15:54:12.706Z,69.70
2018-06-01T15:56:40.272Z,68.90
2018-06-01T15:59:07.808Z,69.50
2018-06-01T16:01:35.393Z,69.40
2018-06-01T16:04:02.925Z,69.50
2018-06-01T16:06:31.236Z,69.60
2018-06-01T16:08:58.809Z,69.60
2018-06-01T16:11:26.342Z,69.80
2018-06-01T16:13:53.901Z,69.80
2018-06-01T16:16:21.442Z,69.40
2018-06-01T16:18:49.766Z,70.40
2018-06-01T16:21:17.294Z,70.40
2018-06-01T16:23:44.851Z,70.50
2018-06-01T16:26:12.382Z,70.50
2018-06-01T16:28:40.715Z,72.20
2018-06-01T16:31:08.260Z,71.50
2018-06-01T16:33:35.820Z,71.50
2018-06-01T16:36:03.372Z,71.70
2018-06-01T16:38:30.925Z,71.60
2018-06-01T16:40:58.463Z,72.20
2018-06-01T16:43:26.792Z,71.90
2018-06-01T16:45:54.326Z,71.80
2018-06-01T16:48:21.887Z,71.80
2018-06-01T16:50:49.432Z,71.80
2018-06-01T16:53:17.763Z,71.40
2018-06-01T16:55:45.307Z,71.40
2018-06-01T16:58:12.867Z,71.20
2018-06-01T17:00:40.408Z,71.40
2018-06-01T17:03:07.961Z,71.20
2018-06-01T17:05:35.503Z,71.50
2018-06-01T17:08:03.860Z,71.30
2018-06-01T17:10:31.395Z,71.20
2018-06-01T17:12:58.963Z,72.20
2018-06-01T17:15:26.504Z,71.40
2018-06-01T17:17:54.061Z,72.00
2018-06-01T17:20:21.595Z,72.20
2018-06-01T17:22:49.920Z,72.70
2018-06-01T17:25:17.463Z,72.70
2018-06-01T17:27:45.124Z,72.70
2018-06-01T17:30:12.664Z,72.90
2018-06-01T17:32:40.224Z,73.00
2018-06-01T17:35:07.780Z,72.90
2018-06-01T17:37:35.342Z,70.50
2018-06-01T17:40:02.881Z,70.90
2018-06-01T17:42:31.210Z,71.20
2018-06-01T17:44:58.762Z,71.20
2018-06-01T17:47:26.331Z,71.60
2018-06-01T17:49:53.871Z,71.80
2018-06-01T17:52:21.435Z,71.80
2018-06-01T17:54:48.974Z,68.90
2018-06-01T17:57:16.550Z,66.30
2018-06-01T17:59:44.090Z,64.80
2018-06-01T18:02:12.392Z,63.50
2018-06-01T18:04:39.956Z,63.50
2018-06-01T18:07:07.489Z,63.10
2018-06-01T18:09:35.820Z,62.40
2018-06-01T18:12:03.355Z,62.30
2018-06-01T18:14:30.913Z,62.20
2018-06-01T18:16:58.595Z,61.90
2018-06-01T18:19:26.178Z,61.90
2018-06-01T18:21:55.218Z,61.70
2018-06-01T18:24:22.781Z,61.70
2018-06-01T18:26:50.326Z,61.60
2018-06-01T18:29:18.739Z,61.30
2018-06-01T18:31:46.278Z,61.30
2018-06-01T18:34:13.848Z,61.30
2018-06-01T18:36:41.377Z,61.40
2018-06-01T18:39:09.706Z,61.30
2018-06-01T18:41:37.243Z,61.30
2018-06-01T18:44:04.832Z,61.30
2018-06-01T18:46:32.372Z,61.40
2018-06-01T18:48:59.951Z,61.40
2018-06-01T18:51:27.495Z,61.60
2018-06-01T18:53:55.060Z,61.90
2018-06-01T18:56:22.599Z,62.00
2018-06-01T18:58:50.166Z,62.10
2018-06-01T19:01:17.712Z,62.30
2018-06-01T19:03:45.272Z,62.40
2018-06-01T19:06:13.583Z,62.70
2018-06-01T19:08:41.141Z,62.50
2018-06-01T19:11:08.683Z,62.80
2018-06-01T19:13:36.248Z,62.70
2018-06-01T19:16:03.791Z,62.90
2018-06-01T19:18:32.120Z,62.90
2018-06-01T19:20:59.650Z,62.80
2018-06-01T19:23:27.223Z,63.20
2018-06-01T19:25:54.763Z,63.30
2018-06-01T19:28:22.335Z,63.30
2018-06-01T19:30:49.877Z,63.40
2018-06-01T19:33:17.441Z,63.60
2018-06-01T19:35:44.978Z,63.80
2018-06-01T19:38:13.301Z,64.10
2018-06-01T19:40:40.841Z,64.10
2018-06-01T19:43:08.399Z,64.40
2018-06-01T19:45:35.944Z,64.50
2018-06-01T19:48:04.267Z,64.70
2018-06-01T19:50:32.163Z,64.80
2018-06-01T19:53:00.479Z,65.90
2018-06-01T19:55:28.050Z,65.00
2018-06-01T19:57:55.595Z,65.10
2018-06-01T20:00:23.158Z,65.40
2018-06-01T20:02:50.706Z,65.50
2018-06-01T20:05:19.031Z,65.80
2018-06-01T20:07:46.567Z,65.80
2018-06-01T20:10:14.135Z,65.90
2018-06-01T20:12:41.686Z,65.80
2018-06-01T20:15:09.254Z,65.80
2018-06-01T20:17:36.783Z,65.90
2018-06-01T20:20:05.121Z,66.00
2018-06-01T20:22:32.663Z,65.90
2018-06-01T20:25:01.195Z,65.90
2018-06-01T20:27:29.496Z,66.00
2018-06-01T20:29:57.080Z,66.00
2018-06-01T20:32:24.609Z,65.90
2018-06-01T20:34:52.200Z,65.80
2018-06-01T20:37:19.745Z,65.90
2018-06-01T20:39:47.302Z,65.80
2018-06-01T20:42:14.839Z,65.70
2018-06-01T20:44:43.162Z,65.80
2018-06-01T20:47:10.700Z,65.80
2018-06-01T20:49:38.276Z,65.70
2018-06-01T20:52:05.824Z,65.70
2018-06-01T20:54:33.402Z,65.60
2018-06-01T20:57:00.946Z,65.70
2018-06-01T20:59:28.502Z,65.60
2018-06-01T21:01:56.044Z,65.60
2018-06-01T21:04:24.375Z,65.70
2018-06-01T21:06:51.918Z,65.60
2018-06-01T21:09:19.586Z,65.60
2018-06-01T21:11:47.130Z,65.70
2018-06-01T21:14:14.706Z,65.70
2018-06-01T21:16:42.257Z,65.80
2018-06-01T21:19:09.822Z,65.80
2018-06-01T21:21:37.361Z,65.80
2018-06-01T21:24:04.939Z,66.00
2018-06-01T21:26:33.406Z,66.00
2018-06-01T21:29:00.980Z,66.00
2018-06-01T21:31:28.552Z,66.10
2018-06-01T21:33:56.115Z,66.00
2018-06-01T21:36:23.658Z,66.00
2018-06-01T21:38:51.222Z,66.10
2018-06-01T21:41:18.768Z,66.10
2018-06-01T21:43:46.344Z,66.10
2018-06-01T21:46:13.888Z,65.90
2018-06-01T21:48:41.426Z,65.80
2018-06-01T21:51:09.754Z,65.80
2018-06-01T21:53:37.294Z,65.70
2018-06-01T21:56:04.855Z,65.80
2018-06-01T21:58:32.390Z,65.80
2018-06-01T22:01:00.719Z,65.60
2018-06-01T22:03:28.259Z,65.50
2018-06-01T22:05:55.833Z,65.40
2018-06-01T22:08:23.374Z,65.50
2018-06-01T22:10:50.946Z,65.50
2018-06-01T22:13:18.489Z,65.50
2018-06-01T22:15:46.045Z,65.50
2018-06-01T22:18:13.581Z,65.40
2018-06-01T22:20:41.910Z,65.40
2018-06-01T22:23:09.541Z,65.40
2018-06-01T22:25:37.102Z,65.40
2018-06-01T22:28:04.648Z,65.50
2018-06-01T22:30:33.061Z,65.50
2018-06-01T22:33:00.599Z,65.50
2018-06-01T22:35:28.162Z,65.60
2018-06-01T22:37:55.699Z,65.60
2018-06-01T22:40:24.025Z,65.60
2018-06-01T22:42:52.331Z,65.60
2018-06-01T22:45:19.904Z,65.50
2018-06-01T22:47:47.442Z,65.60
2018-06-01T22:50:14.999Z,65.60
2018-06-01T22:52:42.544Z,65.70
2018-06-01T22:55:10.102Z,65.80
2018-06-01T22:57:37.638Z,65.80
2018-06-01T23:00:05.202Z,65.90
2018-06-01T23:02:32.737Z,66.00
2018-06-01T23:05:01.059Z,66.10
2018-06-01T23:07:28.603Z,66.10
2018-06-01T23:09:56.157Z,66.00
2018-06-01T23:12:23.693Z,66.10
2018-06-01T23:14:52.016Z,66.30
2018-06-01T23:17:19.574Z,66.10
2018-06-01T23:19:47.179Z,66.30
2018-06-01T23:22:14.693Z,66.20
2018-06-01T23:24:42.259Z,66.30
2018-06-01T23:27:09.814Z,66.40
2018-06-01T23:29:37.382Z,66.50
2018-06-01T23:32:04.921Z,66.40
2018-06-01T23:34:32.499Z,66.40
2018-06-01T23:37:00.040Z,66.30
2018-06-01T23:39:27.589Z,66.40
2018-06-01T23:41:55.156Z,66.40
2018-06-01T23:44:22.714Z,66.40
2018-06-01T23:46:50.275Z,66.40
2018-06-01T23:49:17.831Z,66.50
2018-06-01T23:51:46.159Z,66.60
2018-06-01T23:54:13.701Z,66.60
2018-06-01T23:56:41.275Z,66.60
2018-06-01T23:59:08.814Z,66.60
